createdAt,value
2023-05-24T00:01:56.970Z,10.20
2023-05-24T00:04:25.266Z,10.20
2023-05-24T00:06:55.041Z,10.20
2023-05-24T00:09:22.141Z,10.10
2023-05-24T00:11:48.773Z,10.10
2023-05-24T00:14:15.569Z,10.00
2023-05-24T00:16:42.278Z,10.00
2023-05-24T00:19:11.289Z,9.90
2023-05-24T00:21:38.517Z,9.90
2023-05-24T00:24:05.243Z,9.90
2023-05-24T00:26:31.836Z,9.80
2023-05-24T00:28:58.434Z,9.80
2023-05-24T00:31:25.029Z,9.70
2023-05-24T00:33:51.704Z,9.70
2023-05-24T00:36:18.340Z,9.80
2023-05-24T00:38:44.915Z,9.70
2023-05-24T00:41:11.562Z,9.70
2023-05-24T00:43:38.220Z,9.60
2023-05-24T00:46:07.776Z,9.60
2023-05-24T00:48:34.434Z,9.50
2023-05-24T00:51:09.089Z,9.50
2023-05-24T00:53:36.779Z,9.50
2023-05-24T00:56:03.934Z,9.50
2023-05-24T00:58:31.355Z,9.40
2023-05-24T01:01:01.584Z,9.40
2023-05-24T01:03:31.153Z,9.40
2023-05-24T01:06:00.941Z,9.30
2023-05-24T01:08:45.944Z,9.40
2023-05-24T01:11:36.274Z,9.40
2023-05-24T01:14:14.326Z,9.30
2023-05-24T01:16:40.943Z,9.20
2023-05-24T01:19:26.225Z,9.20
2023-05-24T01:22:12.007Z,9.10
2023-05-24T01:24:47.134Z,9.10
2023-05-24T01:27:14.511Z,9.10
2023-05-24T01:29:41.554Z,9.00
2023-05-24T01:32:08.693Z,9.10
2023-05-24T01:34:35.357Z,9.10
2023-05-24T01:37:02.014Z,9.10
2023-05-24T01:39:29.757Z,9.00
2023-05-24T01:42:03.937Z,8.90
2023-05-24T01:44:33.669Z,8.80
2023-05-24T01:47:02.637Z,8.80
2023-05-24T01:49:31.868Z,8.80
2023-05-24T01:51:58.461Z,8.80
2023-05-24T01:54:25.943Z,8.70
2023-05-24T01:56:52.723Z,8.70
2023-05-24T01:59:20.413Z,8.60
2023-05-24T02:01:47.000Z,8.60
2023-05-24T02:04:13.544Z,8.50
2023-05-24T02:06:40.112Z,8.40
2023-05-24T02:09:06.682Z,8.30
2023-05-24T02:11:33.222Z,8.20
2023-05-24T02:13:59.862Z,8.10
2023-05-24T02:16:26.758Z,8.00
2023-05-24T02:18:53.584Z,7.90
2023-05-24T02:21:26.142Z,7.90
2023-05-24T02:23:52.680Z,7.80
2023-05-24T02:26:19.304Z,7.80
2023-05-24T02:28:45.926Z,7.80
2023-05-24T02:31:12.959Z,7.80
2023-05-24T02:33:40.512Z,7.60
2023-05-24T02:36:07.090Z,7.60
2023-05-24T02:38:33.687Z,7.50
2023-05-24T02:41:00.231Z,7.60
2023-05-24T02:43:26.789Z,7.50
2023-05-24T02:45:53.310Z,7.50
2023-05-24T02:48:20.035Z,7.50
2023-05-24T02:50:46.777Z,7.50
2023-05-24T02:53:13.345Z,7.50
2023-05-24T02:55:39.921Z,7.50
2023-05-24T02:58:08.307Z,7.50
2023-05-24T03:00:34.943Z,7.40
2023-05-24T03:03:03.215Z,7.30
2023-05-24T03:05:29.993Z,7.30
2023-05-24T03:07:56.778Z,7.30
2023-05-24T03:10:23.371Z,7.20
2023-05-24T03:12:50.081Z,7.20
2023-05-24T03:15:16.630Z,7.20
2023-05-24T03:17:43.313Z,7.20
2023-05-24T03:20:11.631Z,7.20
2023-05-24T03:22:38.703Z,7.10
2023-05-24T03:25:05.472Z,7.10
2023-05-24T03:27:32.054Z,7.10
2023-05-24T03:29:58.581Z,7.00
2023-05-24T03:32:25.215Z,7.10
2023-05-24T03:34:51.867Z,7.00
2023-05-24T03:37:18.431Z,7.00
2023-05-24T03:39:44.981Z,7.00
2023-05-24T03:42:11.689Z,7.00
2023-05-24T03:44:38.767Z,7.00
2023-05-24T03:47:05.452Z,7.00
2023-05-24T03:49:32.209Z,6.90
2023-05-24T03:51:58.820Z,7.00
2023-05-24T03:54:25.461Z,7.00
2023-05-24T03:56:53.484Z,7.10
2023-05-24T03:59:20.068Z,7.10
2023-05-24T04:01:46.621Z,7.00
2023-05-24T04:04:13.306Z,7.10
2023-05-24T04:06:41.810Z,7.10
2023-05-24T04:09:09.980Z,7.10
2023-05-24T04:11:36.641Z,7.10
2023-05-24T04:14:03.435Z,7.10
2023-05-24T04:16:34.283Z,7.10
2023-05-24T04:19:02.207Z,7.10
2023-05-24T04:21:29.016Z,7.10
2023-05-24T04:23:56.463Z,7.10
2023-05-24T04:26:23.020Z,7.20
2023-05-24T04:28:49.708Z,7.20
2023-05-24T04:31:16.517Z,7.20
2023-05-24T04:33:43.372Z,7.20
2023-05-24T04:36:11.589Z,7.30
2023-05-24T04:38:38.852Z,7.20
2023-05-24T04:41:08.545Z,7.30
2023-05-24T04:43:35.252Z,7.30
2023-05-24T04:46:01.958Z,7.30
2023-05-24T04:48:28.560Z,7.40
2023-05-24T04:50:55.856Z,7.40
2023-05-24T04:53:23.204Z,7.50
2023-05-24T04:55:50.312Z,7.60
2023-05-24T04:58:16.968Z,7.60
2023-05-24T05:00:44.031Z,7.70
2023-05-24T05:03:10.859Z,7.70
2023-05-24T05:05:37.513Z,7.80
2023-05-24T05:08:04.159Z,7.80
2023-05-24T05:10:30.965Z,7.80
2023-05-24T05:12:57.539Z,7.90
2023-05-24T05:15:24.450Z,8.00
2023-05-24T05:17:51.228Z,8.10
2023-05-24T05:20:18.056Z,8.10
2023-05-24T05:22:50.779Z,8.30
2023-05-24T05:25:17.923Z,8.40
2023-05-24T05:27:44.486Z,8.30
2023-05-24T05:30:11.284Z,8.30
2023-05-24T05:32:37.991Z,8.40
2023-05-24T05:35:05.139Z,8.50
2023-05-24T05:37:31.803Z,8.60
2023-05-24T05:39:58.397Z,8.60
2023-05-24T05:42:25.042Z,8.60
2023-05-24T05:44:52.779Z,8.70
2023-05-24T05:47:19.560Z,8.60
2023-05-24T05:49:46.216Z,8.60
2023-05-24T05:52:12.891Z,8.50
2023-05-24T05:54:39.566Z,8.60
2023-05-24T05:57:08.158Z,8.50
2023-05-24T05:59:36.176Z,8.60
2023-05-24T06:02:06.578Z,8.60
2023-05-24T06:04:33.409Z,8.80
2023-05-24T06:07:00.126Z,9.00
2023-05-24T06:09:26.716Z,9.00
2023-05-24T06:11:53.294Z,9.00
2023-05-24T06:14:22.114Z,9.10
2023-05-24T06:16:48.837Z,9.10
2023-05-24T06:19:16.469Z,9.10
2023-05-24T06:21:47.643Z,9.10
2023-05-24T06:24:15.150Z,9.20
2023-05-24T06:26:42.138Z,9.40
2023-05-24T06:29:09.774Z,9.40
2023-05-24T06:31:36.548Z,9.40
2023-05-24T06:34:04.583Z,9.50
2023-05-24T06:36:41.224Z,9.60
2023-05-24T06:39:08.418Z,9.70
2023-05-24T06:41:35.152Z,9.70
2023-05-24T06:44:01.849Z,9.80
2023-05-24T06:46:28.538Z,9.80
2023-05-24T06:48:55.255Z,9.80
2023-05-24T06:51:21.988Z,9.80
2023-05-24T06:53:48.563Z,9.90
2023-05-24T06:56:15.152Z,9.70
2023-05-24T06:58:41.984Z,10.00
2023-05-24T07:01:08.728Z,10.20
2023-05-24T07:03:35.580Z,10.50
2023-05-24T07:06:02.111Z,10.60
2023-05-24T07:08:28.720Z,10.50
2023-05-24T07:10:55.869Z,10.80
2023-05-24T07:13:22.553Z,11.20
2023-05-24T07:15:49.202Z,11.20
2023-05-24T07:18:15.940Z,11.30
2023-05-24T07:20:42.777Z,11.20
2023-05-24T07:23:09.707Z,11.00
2023-05-24T07:25:36.396Z,11.40
2023-05-24T07:28:02.986Z,11.60
2023-05-24T07:30:46.501Z,11.80
2023-05-24T07:33:13.555Z,12.00
2023-05-24T07:35:40.423Z,12.10
2023-05-24T07:38:07.675Z,12.20
2023-05-24T07:40:34.971Z,12.30
2023-05-24T07:45:28.201Z,11.90
2023-05-24T07:47:56.824Z,11.90
2023-05-24T07:50:23.827Z,11.60
2023-05-24T07:52:51.275Z,11.50
2023-05-24T07:55:17.918Z,11.30
2023-05-24T07:57:44.553Z,11.20
2023-05-24T08:00:14.553Z,11.50
2023-05-24T08:02:42.412Z,11.80
2023-05-24T08:05:10.227Z,12.00
2023-05-24T08:07:36.768Z,12.20
2023-05-24T08:10:03.478Z,12.40
2023-05-24T08:12:33.066Z,12.60
2023-05-24T08:15:04.420Z,12.90
2023-05-24T08:17:31.739Z,13.20
2023-05-24T08:19:58.511Z,13.40
2023-05-24T08:22:25.848Z,13.70
2023-05-24T08:24:52.506Z,13.60
2023-05-24T08:27:19.196Z,13.20
2023-05-24T08:29:45.747Z,13.60
2023-05-24T08:32:12.504Z,13.90
2023-05-24T08:34:39.332Z,13.30
2023-05-24T08:37:05.910Z,13.40
2023-05-24T08:39:32.507Z,13.20
2023-05-24T08:44:32.067Z,13.30
2023-05-24T08:46:58.957Z,13.60
2023-05-24T08:49:25.864Z,13.80
2023-05-24T08:51:52.873Z,13.10
2023-05-24T08:54:20.221Z,13.00
2023-05-24T08:56:47.641Z,13.30
2023-05-24T08:59:14.472Z,13.20
2023-05-24T09:01:41.979Z,13.30
2023-05-24T09:04:08.782Z,12.90
2023-05-24T09:06:36.008Z,13.50
2023-05-24T09:09:03.881Z,13.40
2023-05-24T09:11:31.934Z,13.30
2023-05-24T09:13:58.752Z,13.40
2023-05-24T09:16:25.454Z,13.50
2023-05-24T09:18:52.564Z,13.20
2023-05-24T09:21:19.811Z,13.10
2023-05-24T09:23:46.957Z,12.90
2023-05-24T09:26:13.553Z,13.30
2023-05-24T09:28:41.944Z,13.20
2023-05-24T09:31:08.696Z,13.30
2023-05-24T09:33:35.544Z,13.50
2023-05-24T09:36:03.684Z,13.20
2023-05-24T09:38:30.594Z,13.70
2023-05-24T09:41:04.054Z,14.20
2023-05-24T09:43:31.954Z,14.10
2023-05-24T09:46:00.042Z,14.50
2023-05-24T09:48:26.702Z,13.70
2023-05-24T09:51:05.106Z,13.80
2023-05-24T09:53:35.055Z,14.10
2023-05-24T09:56:05.425Z,14.40
2023-05-24T09:58:35.132Z,16.10
2023-05-24T10:01:14.536Z,17.40
2023-05-24T10:03:54.149Z,18.50
2023-05-24T10:06:21.280Z,18.30
2023-05-24T10:08:49.170Z,18.70
2023-05-24T10:11:15.825Z,17.20
2023-05-24T10:13:45.433Z,17.50
2023-05-24T10:16:12.823Z,17.80
2023-05-24T10:18:39.857Z,18.40
2023-05-24T10:21:09.853Z,16.70
2023-05-24T10:23:37.897Z,17.90
2023-05-24T10:26:08.942Z,18.70
2023-05-24T10:28:37.074Z,20.30
2023-05-24T10:31:18.125Z,19.70
2023-05-24T10:33:46.314Z,18.00
2023-05-24T10:36:13.859Z,16.60
2023-05-24T10:38:40.613Z,17.10
2023-05-24T10:41:13.010Z,17.60
2023-05-24T10:43:39.734Z,16.70
2023-05-24T10:46:09.208Z,16.20
2023-05-24T10:48:37.117Z,16.20
2023-05-24T10:51:22.556Z,16.70
2023-05-24T10:53:49.738Z,17.40
2023-05-24T10:56:17.053Z,17.20
2023-05-24T10:58:44.944Z,18.00
2023-05-24T11:01:24.658Z,16.10
2023-05-24T11:03:51.671Z,15.20
2023-05-24T11:06:18.389Z,14.80
2023-05-24T11:08:46.419Z,15.00
2023-05-24T11:13:46.093Z,14.90
2023-05-24T11:16:32.673Z,15.10
2023-05-24T11:19:04.426Z,15.10
2023-05-24T11:21:31.489Z,15.20
2023-05-24T11:23:58.210Z,15.80
2023-05-24T11:26:24.840Z,15.50
2023-05-24T11:28:52.460Z,15.60
2023-05-24T11:31:19.206Z,15.80
2023-05-24T11:33:45.830Z,15.90
2023-05-24T11:36:12.434Z,16.70
2023-05-24T11:38:39.740Z,16.90
2023-05-24T11:41:07.556Z,17.30
2023-05-24T11:43:35.359Z,17.60
2023-05-24T11:46:02.413Z,18.10
2023-05-24T11:48:29.878Z,18.90
2023-05-24T11:50:56.533Z,20.50
2023-05-24T11:53:23.234Z,19.50
2023-05-24T11:55:50.850Z,17.60
2023-05-24T11:58:23.015Z,17.10
2023-05-24T12:00:50.231Z,17.00
2023-05-24T12:03:17.445Z,16.80
2023-05-24T12:05:44.589Z,16.10
2023-05-24T12:08:18.218Z,15.90
2023-05-24T12:10:49.345Z,15.50
2023-05-24T12:13:23.378Z,15.40
2023-05-24T12:15:53.234Z,15.00
2023-05-24T12:18:22.516Z,15.10
2023-05-24T12:20:49.452Z,14.90
2023-05-24T12:23:17.521Z,14.80
2023-05-24T12:25:44.362Z,14.50
2023-05-24T12:28:10.939Z,14.30
2023-05-24T12:30:43.295Z,14.30
2023-05-24T12:33:10.885Z,14.50
2023-05-24T12:35:38.041Z,14.50
2023-05-24T12:38:08.384Z,14.50
2023-05-24T12:40:34.963Z,14.30
2023-05-24T12:43:02.300Z,14.30
2023-05-24T12:45:28.915Z,14.50
2023-05-24T12:47:56.094Z,14.40
2023-05-24T12:50:23.317Z,14.20
2023-05-24T12:52:53.109Z,14.30
2023-05-24T12:55:22.380Z,14.40
2023-05-24T12:57:55.983Z,14.40
2023-05-24T13:00:23.602Z,14.50
2023-05-24T13:02:52.759Z,14.70
2023-05-24T13:05:19.443Z,14.80
2023-05-24T13:07:46.091Z,15.30
2023-05-24T13:10:15.585Z,15.40
2023-05-24T13:12:42.237Z,15.50
2023-05-24T13:15:09.206Z,15.80
2023-05-24T13:17:36.281Z,15.80
2023-05-24T13:20:07.530Z,16.00
2023-05-24T13:22:35.206Z,15.60
2023-05-24T13:25:02.651Z,15.40
2023-05-24T13:27:29.665Z,15.50
2023-05-24T13:30:00.928Z,15.60
2023-05-24T13:32:31.151Z,16.10
2023-05-24T13:34:59.113Z,16.20
2023-05-24T13:37:25.804Z,16.00
2023-05-24T13:39:55.227Z,16.10
2023-05-24T13:42:22.028Z,16.00
2023-05-24T13:44:48.738Z,15.40
2023-05-24T13:47:31.227Z,15.70
2023-05-24T13:50:06.009Z,15.60
2023-05-24T13:52:32.884Z,15.80
2023-05-24T13:54:59.470Z,16.40
2023-05-24T13:57:31.318Z,15.90
2023-05-24T14:00:09.031Z,15.80
2023-05-24T14:02:35.894Z,15.60
2023-05-24T14:05:21.545Z,15.80
2023-05-24T14:07:49.213Z,16.20
2023-05-24T14:10:17.512Z,16.10
2023-05-24T14:12:49.350Z,16.30
2023-05-24T14:15:20.297Z,16.80
2023-05-24T14:17:46.861Z,16.90
2023-05-24T14:20:13.568Z,16.70
2023-05-24T14:22:41.973Z,16.70
2023-05-24T14:25:09.661Z,16.90
2023-05-24T14:27:36.431Z,16.40
2023-05-24T14:30:03.041Z,16.60
2023-05-24T14:32:29.678Z,16.80
2023-05-24T14:34:56.443Z,16.60
2023-05-24T14:37:23.087Z,17.10
2023-05-24T14:39:49.701Z,17.60
2023-05-24T14:42:16.368Z,17.40
2023-05-24T14:44:42.947Z,16.80
2023-05-24T14:47:09.638Z,17.80
2023-05-24T14:49:36.224Z,17.70
2023-05-24T14:52:02.878Z,17.90
2023-05-24T14:54:29.502Z,18.10
2023-05-24T14:56:56.230Z,17.10
2023-05-24T14:59:22.803Z,17.10
2023-05-24T15:01:49.634Z,17.40
2023-05-24T15:04:16.308Z,17.80
2023-05-24T15:06:43.445Z,18.60
2023-05-24T15:09:10.287Z,19.00
2023-05-24T15:11:37.731Z,19.20
2023-05-24T15:14:04.339Z,20.10
2023-05-24T15:16:31.153Z,19.40
2023-05-24T15:18:57.696Z,19.00
2023-05-24T15:21:24.271Z,19.20
2023-05-24T15:23:50.924Z,18.70
2023-05-24T15:26:17.521Z,18.30
2023-05-24T15:28:44.211Z,18.10
2023-05-24T15:31:13.065Z,18.00
2023-05-24T15:33:39.713Z,17.20
2023-05-24T15:36:06.522Z,17.70
2023-05-24T15:38:33.799Z,17.90
2023-05-24T15:41:00.529Z,18.60
2023-05-24T15:43:27.124Z,19.10
2023-05-24T15:45:53.720Z,19.70
2023-05-24T15:48:21.256Z,20.70
2023-05-24T15:51:25.788Z,20.20
2023-05-24T15:56:03.382Z,21.70
2023-05-24T15:58:30.012Z,22.30
2023-05-24T16:00:56.576Z,22.30
2023-05-24T16:03:23.209Z,21.00
2023-05-24T16:05:50.482Z,20.20
2023-05-24T16:08:17.226Z,18.10
2023-05-24T16:10:44.563Z,18.10
2023-05-24T16:13:11.592Z,18.00
2023-05-24T16:15:40.862Z,17.40
2023-05-24T16:18:08.245Z,17.20
2023-05-24T16:20:35.112Z,16.80
2023-05-24T16:23:03.070Z,16.70
2023-05-24T16:25:29.655Z,16.40
2023-05-24T16:27:56.345Z,16.40
2023-05-24T16:30:23.044Z,16.10
2023-05-24T16:32:49.611Z,16.30
2023-05-24T16:35:16.516Z,16.20
2023-05-24T16:37:43.214Z,16.20
2023-05-24T16:40:10.122Z,16.20
2023-05-24T16:42:36.699Z,16.20
2023-05-24T16:45:03.344Z,16.40
2023-05-24T16:47:30.159Z,16.10
2023-05-24T16:49:56.884Z,16.00
2023-05-24T16:52:23.439Z,15.80
2023-05-24T16:54:50.002Z,15.90
2023-05-24T16:57:16.821Z,15.80
2023-05-24T16:59:45.160Z,15.60
2023-05-24T17:02:11.713Z,15.40
2023-05-24T17:04:38.292Z,15.40
2023-05-24T17:07:05.029Z,15.20
2023-05-24T17:09:31.605Z,15.30
2023-05-24T17:11:58.289Z,15.40
2023-05-24T17:14:24.879Z,15.50
2023-05-24T17:16:51.441Z,15.50
2023-05-24T17:19:19.351Z,15.50
2023-05-24T17:21:46.033Z,15.50
2023-05-24T17:24:12.686Z,15.30
2023-05-24T17:26:40.352Z,15.30
2023-05-24T17:29:07.018Z,15.20
2023-05-24T17:31:33.635Z,15.30
2023-05-24T17:34:00.848Z,15.20
2023-05-24T17:36:27.494Z,15.00
2023-05-24T17:38:54.001Z,15.00
2023-05-24T17:41:22.000Z,15.00
2023-05-24T17:43:48.538Z,15.00
2023-05-24T17:46:16.670Z,14.80
2023-05-24T17:48:43.475Z,14.90
2023-05-24T17:51:10.366Z,15.00
2023-05-24T17:53:37.923Z,14.70
2023-05-24T17:56:04.927Z,14.70
2023-05-24T17:58:32.842Z,14.70
2023-05-24T18:00:59.459Z,14.90
2023-05-24T18:03:26.163Z,15.00
2023-05-24T18:05:52.723Z,14.90
2023-05-24T18:08:19.329Z,15.10
2023-05-24T18:10:46.069Z,14.90
2023-05-24T18:13:13.115Z,15.10
2023-05-24T18:15:39.769Z,15.30
2023-05-24T18:18:06.679Z,15.50
2023-05-24T18:20:33.858Z,15.70
2023-05-24T18:23:00.675Z,16.00
2023-05-24T18:25:27.243Z,16.40
2023-05-24T18:27:53.784Z,16.20
2023-05-24T18:30:20.468Z,16.20
2023-05-24T18:33:03.500Z,16.10
2023-05-24T18:35:36.394Z,16.10
2023-05-24T18:38:03.690Z,16.10
2023-05-24T18:40:30.656Z,15.90
2023-05-24T18:42:57.240Z,15.60
2023-05-24T18:45:23.884Z,15.30
2023-05-24T18:47:50.593Z,14.90
2023-05-24T18:50:23.286Z,14.70
2023-05-24T18:52:50.190Z,14.70
2023-05-24T18:55:16.893Z,14.60
2023-05-24T18:57:43.488Z,14.50
2023-05-24T19:00:10.535Z,14.40
2023-05-24T19:02:38.867Z,14.30
2023-05-24T19:05:06.765Z,14.20
2023-05-24T19:07:34.118Z,14.20
2023-05-24T19:10:00.863Z,14.20
2023-05-24T19:12:27.415Z,14.20
2023-05-24T19:14:54.101Z,14.20
2023-05-24T19:17:20.680Z,14.20
2023-05-24T19:19:47.997Z,14.10
2023-05-24T19:22:14.569Z,14.00
2023-05-24T19:24:41.415Z,14.00
2023-05-24T19:27:08.297Z,13.90
2023-05-24T19:29:35.473Z,13.90
2023-05-24T19:32:02.043Z,13.70
2023-05-24T19:34:31.243Z,13.70
2023-05-24T19:36:57.862Z,13.60
2023-05-24T19:39:24.865Z,13.50
2023-05-24T19:41:52.372Z,13.40
2023-05-24T19:44:19.116Z,13.30
2023-05-24T19:46:45.758Z,13.20
2023-05-24T19:49:12.409Z,13.10
2023-05-24T19:51:38.977Z,13.10
2023-05-24T19:54:06.122Z,13.00
2023-05-24T19:56:32.779Z,12.90
2023-05-24T19:58:59.344Z,12.80
2023-05-24T20:01:26.077Z,12.80
2023-05-24T20:03:52.948Z,12.80
2023-05-24T20:06:19.678Z,12.70
2023-05-24T20:08:46.351Z,12.70
2023-05-24T20:11:14.186Z,12.70
2023-05-24T20:13:40.866Z,12.70
2023-05-24T20:16:07.648Z,12.70
2023-05-24T20:18:37.251Z,12.70
2023-05-24T20:21:03.873Z,12.60
2023-05-24T20:23:33.588Z,12.60
2023-05-24T20:26:00.736Z,12.50
2023-05-24T20:28:31.323Z,12.50
2023-05-24T20:30:59.098Z,12.40
2023-05-24T20:33:25.830Z,12.40
2023-05-24T20:35:53.988Z,12.30
2023-05-24T20:38:20.621Z,12.30
2023-05-24T20:40:48.583Z,12.30
2023-05-24T20:43:15.147Z,12.30
2023-05-24T20:45:41.865Z,12.30
2023-05-24T20:50:58.284Z,12.20
2023-05-24T20:53:24.926Z,12.10
2023-05-24T20:55:51.542Z,12.00
2023-05-24T20:58:18.180Z,11.80
2023-05-24T21:00:44.845Z,11.70
2023-05-24T21:03:11.611Z,11.60
2023-05-24T21:05:39.981Z,11.60
2023-05-24T21:08:06.679Z,11.50
2023-05-24T21:10:33.417Z,11.50
2023-05-24T21:12:59.964Z,11.40
2023-05-24T21:15:26.488Z,11.40
2023-05-24T21:17:53.058Z,11.30
2023-05-24T21:20:19.743Z,11.30
2023-05-24T21:22:46.573Z,11.20
2023-05-24T21:25:13.121Z,11.20
2023-05-24T21:27:39.650Z,11.10
2023-05-24T21:30:06.644Z,11.10
2023-05-24T21:32:33.237Z,11.10
2023-05-24T21:34:59.815Z,11.10
2023-05-24T21:37:26.512Z,11.10
2023-05-24T21:39:53.028Z,11.00
2023-05-24T21:42:19.658Z,10.90
2023-05-24T21:44:49.334Z,10.90
2023-05-24T21:47:15.999Z,10.90
2023-05-24T21:49:42.606Z,10.80
2023-05-24T21:52:09.145Z,10.70
2023-05-24T21:54:35.852Z,10.60
2023-05-24T21:57:02.480Z,10.60
2023-05-24T21:59:29.219Z,10.50
2023-05-24T22:01:56.038Z,10.50
2023-05-24T22:04:22.681Z,10.50
2023-05-24T22:06:49.336Z,10.40
2023-05-24T22:09:16.039Z,10.30
2023-05-24T22:11:42.583Z,10.20
2023-05-24T22:14:10.310Z,10.10
2023-05-24T22:16:36.913Z,10.00
2023-05-24T22:19:03.604Z,10.10
2023-05-24T22:21:33.739Z,10.10
2023-05-24T22:24:00.681Z,10.10
2023-05-24T22:26:27.919Z,10.10
2023-05-24T22:28:55.692Z,10.10
2023-05-24T22:31:24.009Z,10.10
2023-05-24T22:33:50.941Z,10.10
2023-05-24T22:36:18.669Z,10.10
2023-05-24T22:38:45.391Z,10.10
2023-05-24T22:41:12.313Z,10.00
2023-05-24T22:43:38.890Z,10.00
2023-05-24T22:46:06.672Z,9.90
2023-05-24T22:48:34.953Z,9.90
2023-05-24T22:51:01.679Z,9.90
2023-05-24T22:53:28.657Z,10.00
2023-05-24T22:55:55.583Z,9.90
2023-05-24T22:58:23.224Z,9.90
2023-05-24T23:00:50.295Z,9.90
2023-05-24T23:03:16.921Z,9.80
2023-05-24T23:05:43.912Z,9.70
2023-05-24T23:08:14.067Z,9.60
2023-05-24T23:10:45.450Z,9.50
2023-05-24T23:13:16.661Z,9.50
2023-05-24T23:15:43.545Z,9.40
2023-05-24T23:18:16.238Z,9.40
2023-05-24T23:20:44.506Z,9.40
2023-05-24T23:23:12.300Z,9.30
2023-05-24T23:25:39.312Z,9.30
2023-05-24T23:28:05.929Z,9.30
2023-05-24T23:30:32.650Z,9.30
2023-05-24T23:32:59.264Z,9.40
2023-05-24T23:35:26.034Z,9.40
2023-05-24T23:37:53.772Z,9.40
2023-05-24T23:40:20.530Z,9.30
2023-05-24T23:42:47.161Z,9.20
2023-05-24T23:45:15.631Z,9.00
2023-05-24T23:47:42.292Z,9.00
2023-05-24T23:50:09.427Z,9.00
2023-05-24T23:52:36.235Z,9.10
2023-05-24T23:57:28.215Z,9.00
2023-05-24T23:59:54.825Z,9.00
